sensor_id;sensor_type;location;lat;lon;timestamp;pressure;altitude;pressure_sealevel;temperature
43802;BMP280;29429;51.074;13.764;2022-12-10T00:01:50;99023.69;;;3.89
43802;BMP280;29429;51.074;13.764;2022-12-10T00:04:19;99023.88;;;3.88
43802;BMP280;29429;51.074;13.764;2022-12-10T00:06:47;99025.81;;;3.94
43802;BMP280;29429;51.074;13.764;2022-12-10T00:09:17;99016.69;;;3.96
43802;BMP280;29429;51.074;13.764;2022-12-10T00:11:44;99022.06;;;4.03
43802;BMP280;29429;51.074;13.764;2022-12-10T00:14:13;99017.63;;;4.03
43802;BMP280;29429;51.074;13.764;2022-12-10T00:16:40;99019.78;;;4.00
43802;BMP280;29429;51.074;13.764;2022-12-10T00:19:07;99015.06;;;3.95
43802;BMP280;29429;51.074;13.764;2022-12-10T00:21:35;99016.25;;;3.93
43802;BMP280;29429;51.074;13.764;2022-12-10T00:24:04;99008.06;;;3.88
43802;BMP280;29429;51.074;13.764;2022-12-10T00:26:35;99019.91;;;3.92
43802;BMP280;29429;51.074;13.764;2022-12-10T00:29:06;99016.16;;;3.86
43802;BMP280;29429;51.074;13.764;2022-12-10T00:31:36;99015.50;;;3.84
43802;BMP280;29429;51.074;13.764;2022-12-10T00:34:08;99021.94;;;3.82
43802;BMP280;29429;51.074;13.764;2022-12-10T00:36:44;99021.31;;;3.80
43802;BMP280;29429;51.074;13.764;2022-12-10T00:39:13;99018.66;;;3.65
43802;BMP280;29429;51.074;13.764;2022-12-10T00:41:41;99022.41;;;3.71
43802;BMP280;29429;51.074;13.764;2022-12-10T00:44:08;99026.78;;;3.78
43802;BMP280;29429;51.074;13.764;2022-12-10T00:46:35;99019.66;;;3.79
43802;BMP280;29429;51.074;13.764;2022-12-10T00:49:02;99025.69;;;3.73
43802;BMP280;29429;51.074;13.764;2022-12-10T00:51:31;99027.28;;;3.74
43802;BMP280;29429;51.074;13.764;2022-12-10T00:53:59;99027.38;;;3.65
43802;BMP280;29429;51.074;13.764;2022-12-10T00:56:30;99031.38;;;3.61
43802;BMP280;29429;51.074;13.764;2022-12-10T00:58:58;99026.16;;;3.53
43802;BMP280;29429;51.074;13.764;2022-12-10T01:01:29;99035.19;;;3.59
43802;BMP280;29429;51.074;13.764;2022-12-10T01:04:03;99027.22;;;3.67
43802;BMP280;29429;51.074;13.764;2022-12-10T01:09:14;99031.59;;;3.75
43802;BMP280;29429;51.074;13.764;2022-12-10T01:11:44;99030.59;;;3.76
43802;BMP280;29429;51.074;13.764;2022-12-10T01:14:22;99031.22;;;3.78
43802;BMP280;29429;51.074;13.764;2022-12-10T01:16:53;99030.59;;;3.76
43802;BMP280;29429;51.074;13.764;2022-12-10T01:19:20;99023.47;;;3.76
43802;BMP280;29429;51.074;13.764;2022-12-10T01:21:55;99033.03;;;3.77
43802;BMP280;29429;51.074;13.764;2022-12-10T01:24:26;99028.94;;;3.75
43802;BMP280;29429;51.074;13.764;2022-12-10T01:26:53;99029.50;;;3.70
43802;BMP280;29429;51.074;13.764;2022-12-10T01:29:23;99030.81;;;3.66
43802;BMP280;29429;51.074;13.764;2022-12-10T01:31:52;99043.84;;;3.67
43802;BMP280;29429;51.074;13.764;2022-12-10T01:34:19;99041.03;;;3.69
43802;BMP280;29429;51.074;13.764;2022-12-10T01:36:51;99037.19;;;3.72
43802;BMP280;29429;51.074;13.764;2022-12-10T01:39:21;99045.47;;;3.68
43802;BMP280;29429;51.074;13.764;2022-12-10T01:41:53;99042.56;;;3.63
43802;BMP280;29429;51.074;13.764;2022-12-10T01:46:55;99055.44;;;3.58
43802;BMP280;29429;51.074;13.764;2022-12-10T01:49:37;99051.16;;;3.57
43802;BMP280;29429;51.074;13.764;2022-12-10T01:52:08;99050.53;;;3.55
43802;BMP280;29429;51.074;13.764;2022-12-10T01:54:43;99043.56;;;3.62
43802;BMP280;29429;51.074;13.764;2022-12-10T01:57:16;99044.63;;;3.68
43802;BMP280;29429;51.074;13.764;2022-12-10T01:59:48;99043.19;;;3.65
43802;BMP280;29429;51.074;13.764;2022-12-10T02:02:52;99046.28;;;3.69
43802;BMP280;29429;51.074;13.764;2022-12-10T02:05:39;99040.53;;;3.65
43802;BMP280;29429;51.074;13.764;2022-12-10T02:08:34;99032.56;;;3.74
43802;BMP280;29429;51.074;13.764;2022-12-10T02:11:29;99032.13;;;3.70
43802;BMP280;29429;51.074;13.764;2022-12-10T02:14:19;99055.13;;;3.76
43802;BMP280;29429;51.074;13.764;2022-12-10T02:17:03;99032.13;;;3.70
43802;BMP280;29429;51.074;13.764;2022-12-10T02:22:53;99026.56;;;3.65
43802;BMP280;29429;51.074;13.764;2022-12-10T02:26:05;99031.31;;;3.69
43802;BMP280;29429;51.074;13.764;2022-12-10T02:31:55;99029.00;;;3.66
43802;BMP280;29429;51.074;13.764;2022-12-10T02:34:28;99021.75;;;3.68
43802;BMP280;29429;51.074;13.764;2022-12-10T02:37:04;99028.03;;;3.67
43802;BMP280;29429;51.074;13.764;2022-12-10T02:39:40;99032.94;;;3.71
43802;BMP280;29429;51.074;13.764;2022-12-10T02:42:11;99025.56;;;3.66
43802;BMP280;29429;51.074;13.764;2022-12-10T02:44:43;99036.72;;;3.68
43802;BMP280;29429;51.074;13.764;2022-12-10T02:47:13;99029.31;;;3.72
43802;BMP280;29429;51.074;13.764;2022-12-10T02:49:47;99033.16;;;3.84
43802;BMP280;29429;51.074;13.764;2022-12-10T02:52:19;99032.78;;;3.87
43802;BMP280;29429;51.074;13.764;2022-12-10T02:54:51;99034.06;;;3.91
43802;BMP280;29429;51.074;13.764;2022-12-10T03:00:16;99030.69;;;3.82
43802;BMP280;29429;51.074;13.764;2022-12-10T03:08:45;99040.13;;;3.77
43802;BMP280;29429;51.074;13.764;2022-12-10T03:11:17;99034.56;;;3.72
43802;BMP280;29429;51.074;13.764;2022-12-10T03:14:08;99054.09;;;3.62
43802;BMP280;29429;51.074;13.764;2022-12-10T03:16:46;99051.81;;;3.59
43802;BMP280;29429;51.074;13.764;2022-12-10T03:19:20;99054.75;;;3.64
43802;BMP280;29429;51.074;13.764;2022-12-10T03:21:51;99059.38;;;3.62
43802;BMP280;29429;51.074;13.764;2022-12-10T03:24:27;99048.91;;;3.54
43802;BMP280;29429;51.074;13.764;2022-12-10T03:26:56;99052.88;;;3.50
43802;BMP280;29429;51.074;13.764;2022-12-10T03:29:40;99052.78;;;3.44
43802;BMP280;29429;51.074;13.764;2022-12-10T03:32:08;99058.50;;;3.47
43802;BMP280;29429;51.074;13.764;2022-12-10T03:34:36;99061.69;;;3.57
43802;BMP280;29429;51.074;13.764;2022-12-10T03:37:05;99057.91;;;3.60
43802;BMP280;29429;51.074;13.764;2022-12-10T03:39:33;99061.00;;;3.63
43802;BMP280;29429;51.074;13.764;2022-12-10T03:42:00;99057.91;;;3.60
43802;BMP280;29429;51.074;13.764;2022-12-10T03:44:35;99067.91;;;3.64
43802;BMP280;29429;51.074;13.764;2022-12-10T03:47:05;99063.97;;;3.60
43802;BMP280;29429;51.074;13.764;2022-12-10T03:49:32;99058.72;;;3.60
43802;BMP280;29429;51.074;13.764;2022-12-10T03:51:59;99057.72;;;3.61
43802;BMP280;29429;51.074;13.764;2022-12-10T03:54:26;99056.38;;;3.65
43802;BMP280;29429;51.074;13.764;2022-12-10T03:56:53;99050.16;;;3.58
43802;BMP280;29429;51.074;13.764;2022-12-10T03:59:21;99047.53;;;3.58
43802;BMP280;29429;51.074;13.764;2022-12-10T04:01:48;99052.16;;;3.56
43802;BMP280;29429;51.074;13.764;2022-12-10T04:04:15;99043.56;;;3.62
43802;BMP280;29429;51.074;13.764;2022-12-10T04:06:43;99048.66;;;3.64
43802;BMP280;29429;51.074;13.764;2022-12-10T04:09:13;99052.75;;;3.66
43802;BMP280;29429;51.074;13.764;2022-12-10T04:11:42;99053.50;;;3.75
43802;BMP280;29429;51.074;13.764;2022-12-10T04:14:11;99049.34;;;3.81
43802;BMP280;29429;51.074;13.764;2022-12-10T04:16:58;99043.22;;;3.80
43802;BMP280;29429;51.074;13.764;2022-12-10T04:19:26;99047.81;;;3.86
43802;BMP280;29429;51.074;13.764;2022-12-10T04:21:53;99053.16;;;3.93
43802;BMP280;29429;51.074;13.764;2022-12-10T04:24:38;99049.97;;;3.97
43802;BMP280;29429;51.074;13.764;2022-12-10T04:27:37;99050.44;;;3.86
43802;BMP280;29429;51.074;13.764;2022-12-10T04:30:11;99051.06;;;3.88
43802;BMP280;29429;51.074;13.764;2022-12-10T04:32:38;99048.16;;;3.83
43802;BMP280;29429;51.074;13.764;2022-12-10T04:35:06;99055.50;;;3.88
43802;BMP280;29429;51.074;13.764;2022-12-10T04:37:33;99047.81;;;3.86
43802;BMP280;29429;51.074;13.764;2022-12-10T04:40:00;99043.78;;;3.90
43802;BMP280;29429;51.074;13.764;2022-12-10T04:42:27;99042.59;;;3.93
43802;BMP280;29429;51.074;13.764;2022-12-10T04:44:55;99053.00;;;3.94
43802;BMP280;29429;51.074;13.764;2022-12-10T04:47:22;99043.69;;;3.84
43802;BMP280;29429;51.074;13.764;2022-12-10T04:49:49;99046.94;;;3.71
43802;BMP280;29429;51.074;13.764;2022-12-10T04:52:16;99052.03;;;3.73
43802;BMP280;29429;51.074;13.764;2022-12-10T04:54:44;99046.69;;;3.81
43802;BMP280;29429;51.074;13.764;2022-12-10T04:57:11;99037.75;;;3.82
43802;BMP280;29429;51.074;13.764;2022-12-10T04:59:38;99041.22;;;3.82
43802;BMP280;29429;51.074;13.764;2022-12-10T05:02:06;99041.06;;;3.84
43802;BMP280;29429;51.074;13.764;2022-12-10T05:04:33;99036.31;;;3.79
43802;BMP280;29429;51.074;13.764;2022-12-10T05:07:01;99038.94;;;3.79
43802;BMP280;29429;51.074;13.764;2022-12-10T05:09:28;99036.66;;;3.76
43802;BMP280;29429;51.074;13.764;2022-12-10T05:11:54;99043.19;;;3.65
43802;BMP280;29429;51.074;13.764;2022-12-10T05:14:21;99049.56;;;3.71
43802;BMP280;29429;51.074;13.764;2022-12-10T05:16:50;99047.59;;;3.73
43802;BMP280;29429;51.074;13.764;2022-12-10T05:19:19;99041.84;;;3.69
43802;BMP280;29429;51.074;13.764;2022-12-10T05:21:46;99044.28;;;3.71
43802;BMP280;29429;51.074;13.764;2022-12-10T05:24:32;99043.84;;;3.67
43802;BMP280;29429;51.074;13.764;2022-12-10T05:27:00;99045.19;;;3.63
43802;BMP280;29429;51.074;13.764;2022-12-10T05:29:27;99042.38;;;3.65
43802;BMP280;29429;51.074;13.764;2022-12-10T05:31:54;99049.75;;;3.69
43802;BMP280;29429;51.074;13.764;2022-12-10T05:34:21;99049.75;;;3.69
43802;BMP280;29429;51.074;13.764;2022-12-10T05:36:48;99045.19;;;3.63
43802;BMP280;29429;51.074;13.764;2022-12-10T05:39:15;99048.16;;;3.60
43802;BMP280;29429;51.074;13.764;2022-12-10T05:41:42;99054.53;;;3.51
43802;BMP280;29429;51.074;13.764;2022-12-10T05:44:11;99051.59;;;3.46
43802;BMP280;29429;51.074;13.764;2022-12-10T05:46:39;99060.84;;;3.42
43802;BMP280;29429;51.074;13.764;2022-12-10T05:49:07;99050.84;;;3.38
43802;BMP280;29429;51.074;13.764;2022-12-10T05:51:36;99052.16;;;3.34
43802;BMP280;29429;51.074;13.764;2022-12-10T05:54:06;99055.56;;;3.42
43802;BMP280;29429;51.074;13.764;2022-12-10T05:56:35;99057.31;;;3.50
43802;BMP280;29429;51.074;13.764;2022-12-10T05:59:04;99061.31;;;3.46
43802;BMP280;29429;51.074;13.764;2022-12-10T06:01:35;99053.94;;;3.41
43802;BMP280;29429;51.074;13.764;2022-12-10T06:04:05;99057.38;;;3.42
43802;BMP280;29429;51.074;13.764;2022-12-10T06:06:36;99054.41;;;3.45
43802;BMP280;29429;51.074;13.764;2022-12-10T06:09:06;99060.00;;;3.42
43802;BMP280;29429;51.074;13.764;2022-12-10T06:11:33;99061.84;;;3.41
43802;BMP280;29429;51.074;13.764;2022-12-10T06:14:01;99068.41;;;3.45
43802;BMP280;29429;51.074;13.764;2022-12-10T06:16:28;99076.00;;;3.40
43802;BMP280;29429;51.074;13.764;2022-12-10T06:18:56;99067.19;;;3.33
43802;BMP280;29429;51.074;13.764;2022-12-10T06:21:24;99066.81;;;3.36
43802;BMP280;29429;51.074;13.764;2022-12-10T06:23:52;99067.13;;;3.41
43802;BMP280;29429;51.074;13.764;2022-12-10T06:26:23;99072.41;;;3.41
43802;BMP280;29429;51.074;13.764;2022-12-10T06:28:52;99076.00;;;3.40
43802;BMP280;29429;51.074;13.764;2022-12-10T06:31:21;99074.84;;;3.43
43802;BMP280;29429;51.074;13.764;2022-12-10T06:33:48;99077.41;;;3.51
43802;BMP280;29429;51.074;13.764;2022-12-10T06:36:17;99083.44;;;3.59
43802;BMP280;29429;51.074;13.764;2022-12-10T06:38:45;99085.91;;;3.61
43802;BMP280;29429;51.074;13.764;2022-12-10T06:41:15;99090.00;;;3.63
43802;BMP280;29429;51.074;13.764;2022-12-10T06:43:42;99086.38;;;3.64
43802;BMP280;29429;51.074;13.764;2022-12-10T06:46:15;99087.78;;;3.75
43802;BMP280;29429;51.074;13.764;2022-12-10T06:48:43;99089.38;;;3.76
43802;BMP280;29429;51.074;13.764;2022-12-10T06:51:11;99090.06;;;3.78
43802;BMP280;29429;51.074;13.764;2022-12-10T06:53:40;99093.03;;;3.75
43802;BMP280;29429;51.074;13.764;2022-12-10T06:56:12;99090.28;;;3.68
43802;BMP280;29429;51.074;13.764;2022-12-10T06:58:40;99098.31;;;3.75
43802;BMP280;29429;51.074;13.764;2022-12-10T07:01:16;99091.75;;;3.71
43802;BMP280;29429;51.074;13.764;2022-12-10T07:03:50;99103.88;;;3.57
43802;BMP280;29429;51.074;13.764;2022-12-10T07:06:18;99098.50;;;3.51
43802;BMP280;29429;51.074;13.764;2022-12-10T07:08:46;99105.56;;;3.50
43802;BMP280;29429;51.074;13.764;2022-12-10T07:11:16;99109.97;;;3.58
43802;BMP280;29429;51.074;13.764;2022-12-10T07:13:43;99108.97;;;3.59
43802;BMP280;29429;51.074;13.764;2022-12-10T07:18:47;99112.16;;;3.54
43802;BMP280;29429;51.074;13.764;2022-12-10T07:21:31;99104.88;;;3.56
43802;BMP280;29429;51.074;13.764;2022-12-10T07:24:10;99110.84;;;3.50
43802;BMP280;29429;51.074;13.764;2022-12-10T07:26:41;99112.03;;;3.48
43802;BMP280;29429;51.074;13.764;2022-12-10T07:29:19;99113.00;;;3.47
43802;BMP280;29429;51.074;13.764;2022-12-10T07:31:48;99115.53;;;3.40
43802;BMP280;29429;51.074;13.764;2022-12-10T07:34:16;99110.25;;;3.40
43802;BMP280;29429;51.074;13.764;2022-12-10T07:36:43;99117.63;;;3.45
43802;BMP280;29429;51.074;13.764;2022-12-10T07:39:12;99120.31;;;3.37
43802;BMP280;29429;51.074;13.764;2022-12-10T07:41:53;99122.22;;;3.28
43802;BMP280;29429;51.074;13.764;2022-12-10T07:44:23;99130.16;;;3.20
43802;BMP280;29429;51.074;13.764;2022-12-10T07:46:53;99131.66;;;3.15
43802;BMP280;29429;51.074;13.764;2022-12-10T07:49:21;99125.88;;;3.19
43802;BMP280;29429;51.074;13.764;2022-12-10T07:51:49;99126.81;;;3.26
43802;BMP280;29429;51.074;13.764;2022-12-10T07:54:18;99127.09;;;3.31
43802;BMP280;29429;51.074;13.764;2022-12-10T07:56:46;99122.03;;;3.30
43802;BMP280;29429;51.074;13.764;2022-12-10T07:59:13;99127.47;;;3.28
43802;BMP280;29429;51.074;13.764;2022-12-10T08:01:40;99125.81;;;3.27
43802;BMP280;29429;51.074;13.764;2022-12-10T08:04:07;99119.25;;;3.23
43802;BMP280;29429;51.074;13.764;2022-12-10T08:06:34;99121.03;;;3.31
43802;BMP280;29429;51.074;13.764;2022-12-10T08:09:02;99124.75;;;3.36
43802;BMP280;29429;51.074;13.764;2022-12-10T08:11:29;99133.69;;;3.35
43802;BMP280;29429;51.074;13.764;2022-12-10T08:13:56;99131.44;;;3.24
43802;BMP280;29429;51.074;13.764;2022-12-10T08:16:27;99135.88;;;3.24
43802;BMP280;29429;51.074;13.764;2022-12-10T08:18:57;99133.09;;;3.25
43802;BMP280;29429;51.074;13.764;2022-12-10T08:21:28;99134.50;;;3.36
43802;BMP280;29429;51.074;13.764;2022-12-10T08:23:57;99134.81;;;3.41
43802;BMP280;29429;51.074;13.764;2022-12-10T08:26:28;99136.72;;;3.47
43802;BMP280;29429;51.074;13.764;2022-12-10T08:28:57;99133.94;;;3.48
43802;BMP280;29429;51.074;13.764;2022-12-10T08:31:25;99135.44;;;3.43
43802;BMP280;29429;51.074;13.764;2022-12-10T08:33:53;99139.00;;;3.50
43802;BMP280;29429;51.074;13.764;2022-12-10T08:36:20;99133.59;;;3.51
43802;BMP280;29429;51.074;13.764;2022-12-10T08:38:48;99146.47;;;3.46
43802;BMP280;29429;51.074;13.764;2022-12-10T08:41:19;99144.22;;;3.35
43802;BMP280;29429;51.074;13.764;2022-12-10T08:43:47;99140.94;;;3.33
43802;BMP280;29429;51.074;13.764;2022-12-10T08:46:15;99147.16;;;3.40
43802;BMP280;29429;51.074;13.764;2022-12-10T08:48:42;99150.63;;;3.41
43802;BMP280;29429;51.074;13.764;2022-12-10T08:51:14;99152.44;;;3.40
43802;BMP280;29429;51.074;13.764;2022-12-10T08:53:41;99159.09;;;3.28
43802;BMP280;29429;51.074;13.764;2022-12-10T08:56:08;99162.03;;;3.33
43802;BMP280;29429;51.074;13.764;2022-12-10T08:58:37;99165.94;;;3.37
43802;BMP280;29429;51.074;13.764;2022-12-10T09:01:11;99160.38;;;3.32
43802;BMP280;29429;51.074;13.764;2022-12-10T09:03:39;99166.16;;;3.28
43802;BMP280;29429;51.074;13.764;2022-12-10T09:06:09;99161.34;;;3.31
43802;BMP280;29429;51.074;13.764;2022-12-10T09:08:38;99167.94;;;3.35
43802;BMP280;29429;51.074;13.764;2022-12-10T09:13:49;99163.00;;;3.32
43802;BMP280;29429;51.074;13.764;2022-12-10T09:16:17;99167.41;;;3.40
43802;BMP280;29429;51.074;13.764;2022-12-10T09:18:44;99163.25;;;3.45
43802;BMP280;29429;51.074;13.764;2022-12-10T09:21:16;99168.00;;;3.50
43802;BMP280;29429;51.074;13.764;2022-12-10T09:23:43;99169.66;;;3.51
43802;BMP280;29429;51.074;13.764;2022-12-10T09:26:14;99164.69;;;3.56
43802;BMP280;29429;51.074;13.764;2022-12-10T09:28:43;99170.47;;;3.51
43802;BMP280;29429;51.074;13.764;2022-12-10T09:31:12;99166.72;;;3.46
43802;BMP280;29429;51.074;13.764;2022-12-10T09:33:45;99164.63;;;3.41
43802;BMP280;29429;51.074;13.764;2022-12-10T09:36:14;99167.06;;;3.43
43802;BMP280;29429;51.074;13.764;2022-12-10T09:38:43;99164.63;;;3.41
43802;BMP280;29429;51.074;13.764;2022-12-10T09:47:08;99161.78;;;3.43
43802;BMP280;29429;51.074;13.764;2022-12-10T09:50:42;99164.13;;;3.38
43802;BMP280;29429;51.074;13.764;2022-12-10T09:53:09;99163.66;;;3.34
43802;BMP280;29429;51.074;13.764;2022-12-10T09:55:44;99158.25;;;3.28
43802;BMP280;29429;51.074;13.764;2022-12-10T09:58:22;99158.72;;;3.31
43802;BMP280;29429;51.074;13.764;2022-12-10T10:01:04;99166.50;;;3.25
43802;BMP280;29429;51.074;13.764;2022-12-10T10:03:38;99162.72;;;3.27
43802;BMP280;29429;51.074;13.764;2022-12-10T10:06:10;99162.38;;;3.30
43802;BMP280;29429;51.074;13.764;2022-12-10T10:08:44;99147.00;;;3.34
43802;BMP280;29429;51.074;13.764;2022-12-10T10:11:21;99157.09;;;3.30
43802;BMP280;29429;51.074;13.764;2022-12-10T10:14:03;99162.19;;;3.32
43802;BMP280;29429;51.074;13.764;2022-12-10T10:16:40;99160.56;;;3.31
43802;BMP280;29429;51.074;13.764;2022-12-10T10:19:28;99144.41;;;3.26
43802;BMP280;29429;51.074;13.764;2022-12-10T10:21:58;99152.16;;;3.27
43802;BMP280;29429;51.074;13.764;2022-12-10T10:24:37;99151.19;;;3.28
43802;BMP280;29429;51.074;13.764;2022-12-10T10:27:29;99151.19;;;3.28
43802;BMP280;29429;51.074;13.764;2022-12-10T10:30:02;99152.31;;;3.26
43802;BMP280;29429;51.074;13.764;2022-12-10T10:35:04;99149.25;;;3.22
43802;BMP280;29429;51.074;13.764;2022-12-10T10:37:42;99152.69;;;3.23
43802;BMP280;29429;51.074;13.764;2022-12-10T10:40:29;99153.81;;;3.28
43802;BMP280;29429;51.074;13.764;2022-12-10T10:43:00;99151.34;;;3.27
43802;BMP280;29429;51.074;13.764;2022-12-10T10:45:36;99152.16;;;3.27
43802;BMP280;29429;51.074;13.764;2022-12-10T10:48:36;99150.56;;;3.18
43802;BMP280;29429;51.074;13.764;2022-12-10T10:53:45;99137.72;;;3.15
43802;BMP280;29429;51.074;13.764;2022-12-10T10:59:06;99149.34;;;3.29
43802;BMP280;29429;51.074;13.764;2022-12-10T11:01:54;99142.56;;;3.34
43802;BMP280;29429;51.074;13.764;2022-12-10T11:04:37;99139.44;;;3.39
43802;BMP280;29429;51.074;13.764;2022-12-10T11:07:16;99140.72;;;3.43
43802;BMP280;29429;51.074;13.764;2022-12-10T11:09:45;99141.25;;;3.38
43802;BMP280;29429;51.074;13.764;2022-12-10T11:15:00;99147.63;;;3.44
43802;BMP280;29429;51.074;13.764;2022-12-10T11:17:27;99142.81;;;3.47
43802;BMP280;29429;51.074;13.764;2022-12-10T11:20:16;99142.53;;;3.42
43802;BMP280;29429;51.074;13.764;2022-12-10T11:22:55;99142.53;;;3.42
43802;BMP280;29429;51.074;13.764;2022-12-10T11:29:04;99148.63;;;3.43
43802;BMP280;29429;51.074;13.764;2022-12-10T11:37:38;99148.22;;;3.23
43802;BMP280;29429;51.074;13.764;2022-12-10T11:46:01;99151.28;;;3.12
43802;BMP280;29429;51.074;13.764;2022-12-10T11:51:53;99154.16;;;3.25
43802;BMP280;29429;51.074;13.764;2022-12-10T12:00:24;99146.22;;;3.33
43802;BMP280;29429;51.074;13.764;2022-12-10T12:14:44;99151.31;;;3.04
43802;BMP280;29429;51.074;13.764;2022-12-10T12:17:32;99146.50;;;3.07
43802;BMP280;29429;51.074;13.764;2022-12-10T12:23:04;99152.50;;;3.24
43802;BMP280;29429;51.074;13.764;2022-12-10T12:25:39;99158.81;;;3.15
43802;BMP280;29429;51.074;13.764;2022-12-10T12:28:28;99149.28;;;3.14
43802;BMP280;29429;51.074;13.764;2022-12-10T12:31:07;99150.97;;;3.07
43802;BMP280;29429;51.074;13.764;2022-12-10T12:33:47;99145.69;;;3.07
43802;BMP280;29429;51.074;13.764;2022-12-10T12:36:27;99143.22;;;3.05
43802;BMP280;29429;51.074;13.764;2022-12-10T12:39:28;99145.69;;;3.07
43802;BMP280;29429;51.074;13.764;2022-12-10T12:44:48;99147.94;;;3.18
43802;BMP280;29429;51.074;13.764;2022-12-10T12:47:41;99143.97;;;3.22
43802;BMP280;29429;51.074;13.764;2022-12-10T12:53:12;99140.94;;;3.02
43802;BMP280;29429;51.074;13.764;2022-12-10T12:56:17;99156.59;;;2.96
43802;BMP280;29429;51.074;13.764;2022-12-10T12:59:17;99141.00;;;2.86
43802;BMP280;29429;51.074;13.764;2022-12-10T13:04:58;99148.09;;;2.86
43802;BMP280;29429;51.074;13.764;2022-12-10T13:07:34;99145.63;;;2.76
43802;BMP280;29429;51.074;13.764;2022-12-10T13:15:37;99162.25;;;2.85
43802;BMP280;29429;51.074;13.764;2022-12-10T13:47:55;99183.00;;;2.72
43802;BMP280;29429;51.074;13.764;2022-12-10T14:00:00;99188.13;;;2.57
43802;BMP280;29429;51.074;13.764;2022-12-10T14:08:36;99203.75;;;2.59
43802;BMP280;29429;51.074;13.764;2022-12-10T14:11:16;99200.50;;;2.57
43802;BMP280;29429;51.074;13.764;2022-12-10T14:13:52;99192.72;;;2.63
43802;BMP280;29429;51.074;13.764;2022-12-10T14:16:22;99194.19;;;2.66
43802;BMP280;29429;51.074;13.764;2022-12-10T14:19:04;99201.94;;;2.67
43802;BMP280;29429;51.074;13.764;2022-12-10T14:21:38;99193.88;;;2.61
43802;BMP280;29429;51.074;13.764;2022-12-10T14:24:29;99205.38;;;2.60
43802;BMP280;29429;51.074;13.764;2022-12-10T14:27:18;99206.72;;;2.64
43802;BMP280;29429;51.074;13.764;2022-12-10T14:29:49;99202.41;;;2.71
43802;BMP280;29429;51.074;13.764;2022-12-10T14:32:36;99202.56;;;2.77
43802;BMP280;29429;51.074;13.764;2022-12-10T14:35:11;99209.44;;;2.86
43802;BMP280;29429;51.074;13.764;2022-12-10T14:37:43;99208.66;;;2.86
43802;BMP280;29429;51.074;13.764;2022-12-10T14:40:21;99211.59;;;2.83
43802;BMP280;29429;51.074;13.764;2022-12-10T14:42:55;99207.69;;;2.71
43802;BMP280;29429;51.074;13.764;2022-12-10T14:45:25;99216.41;;;2.71
43802;BMP280;29429;51.074;13.764;2022-12-10T14:47:54;99221.84;;;2.70
43802;BMP280;29429;51.074;13.764;2022-12-10T14:50:21;99218.53;;;2.68
43802;BMP280;29429;51.074;13.764;2022-12-10T14:52:52;99221.00;;;2.69
43802;BMP280;29429;51.074;13.764;2022-12-10T14:55:23;99223.00;;;2.67
43802;BMP280;29429;51.074;13.764;2022-12-10T14:58:00;99224.50;;;2.62
43802;BMP280;29429;51.074;13.764;2022-12-10T15:00:27;99226.81;;;2.57
43802;BMP280;29429;51.074;13.764;2022-12-10T15:03:00;99226.81;;;2.57
43802;BMP280;29429;51.074;13.764;2022-12-10T15:05:33;99226.28;;;2.61
43802;BMP280;29429;51.074;13.764;2022-12-10T15:08:15;99224.81;;;2.59
43802;BMP280;29429;51.074;13.764;2022-12-10T15:10:56;99228.94;;;2.53
43802;BMP280;29429;51.074;13.764;2022-12-10T15:13:44;99234.84;;;2.55
43802;BMP280;29429;51.074;13.764;2022-12-10T15:16:41;99233.69;;;2.58
43802;BMP280;29429;51.074;13.764;2022-12-10T15:21:46;99227.78;;;2.56
43802;BMP280;29429;51.074;13.764;2022-12-10T15:24:20;99224.16;;;2.57
43802;BMP280;29429;51.074;13.764;2022-12-10T15:26:50;99226.44;;;2.60
43802;BMP280;29429;51.074;13.764;2022-12-10T15:32:12;99232.06;;;2.57
43802;BMP280;29429;51.074;13.764;2022-12-10T15:34:48;99234.19;;;2.61
43802;BMP280;29429;51.074;13.764;2022-12-10T15:37:25;99234.19;;;2.61
43802;BMP280;29429;51.074;13.764;2022-12-10T15:39:56;99234.00;;;2.55
43802;BMP280;29429;51.074;13.764;2022-12-10T15:45:17;99241.59;;;2.50
43802;BMP280;29429;51.074;13.764;2022-12-10T15:47:45;99254.28;;;2.46
43802;BMP280;29429;51.074;13.764;2022-12-10T15:50:13;99259.34;;;2.56
43802;BMP280;29429;51.074;13.764;2022-12-10T15:52:40;99257.22;;;2.51
43802;BMP280;29429;51.074;13.764;2022-12-10T15:55:08;99253.78;;;2.51
43802;BMP280;29429;51.074;13.764;2022-12-10T15:57:38;99262.63;;;2.50
43802;BMP280;29429;51.074;13.764;2022-12-10T16:00:19;99259.34;;;2.47
43802;BMP280;29429;51.074;13.764;2022-12-10T16:03:04;99268.59;;;2.43
43802;BMP280;29429;51.074;13.764;2022-12-10T16:05:37;99265.59;;;2.46
43802;BMP280;29429;51.074;13.764;2022-12-10T16:08:23;99268.91;;;2.49
43802;BMP280;29429;51.074;13.764;2022-12-10T16:10:53;99275.78;;;2.33
43802;BMP280;29429;51.074;13.764;2022-12-10T16:13:34;99290.28;;;2.37
43802;BMP280;29429;51.074;13.764;2022-12-10T16:16:09;99283.34;;;2.44
43802;BMP280;29429;51.074;13.764;2022-12-10T16:18:37;99284.50;;;2.50
43802;BMP280;29429;51.074;13.764;2022-12-10T16:21:06;99295.22;;;2.65
43802;BMP280;29429;51.074;13.764;2022-12-10T16:23:35;99295.19;;;2.73
43802;BMP280;29429;51.074;13.764;2022-12-10T16:26:17;99289.59;;;2.68
43802;BMP280;29429;51.074;13.764;2022-12-10T16:28:46;99301.28;;;2.65
43802;BMP280;29429;51.074;13.764;2022-12-10T16:31:19;99292.22;;;2.68
43802;BMP280;29429;51.074;13.764;2022-12-10T16:33:47;99289.97;;;2.57
43802;BMP280;29429;51.074;13.764;2022-12-10T16:36:15;99286.97;;;2.60
43802;BMP280;29429;51.074;13.764;2022-12-10T16:38:43;99295.22;;;2.65
43802;BMP280;29429;51.074;13.764;2022-12-10T16:41:17;99294.53;;;2.63
43802;BMP280;29429;51.074;13.764;2022-12-10T16:43:45;99295.88;;;2.59
43802;BMP280;29429;51.074;13.764;2022-12-10T16:46:12;99299.81;;;2.63
43802;BMP280;29429;51.074;13.764;2022-12-10T16:48:39;99295.53;;;2.54
43802;BMP280;29429;51.074;13.764;2022-12-10T16:51:28;99292.22;;;2.60
43802;BMP280;29429;51.074;13.764;2022-12-10T16:53:57;99299.00;;;2.54
43802;BMP280;29429;51.074;13.764;2022-12-10T16:56:24;99302.59;;;2.53
43802;BMP280;29429;51.074;13.764;2022-12-10T16:58:51;99300.13;;;2.52
43802;BMP280;29429;51.074;13.764;2022-12-10T17:01:30;99312.16;;;2.54
43802;BMP280;29429;51.074;13.764;2022-12-10T17:04:00;99298.50;;;2.42
43802;BMP280;29429;51.074;13.764;2022-12-10T17:06:27;99306.06;;;2.45
43802;BMP280;29429;51.074;13.764;2022-12-10T17:08:55;99303.44;;;2.45
43802;BMP280;29429;51.074;13.764;2022-12-10T17:11:25;99306.38;;;2.42